sensor_id;sensor_type;location;lat;lon;timestamp;temperature;humidity
68354;DHT22;55274;43.060;25.618;2023-03-17T00:01:13;4.70;99.90
68354;DHT22;55274;43.060;25.618;2023-03-17T00:03:42;4.60;99.90
68354;DHT22;55274;43.060;25.618;2023-03-17T00:06:13;4.60;99.90
68354;DHT22;55274;43.060;25.618;2023-03-17T00:08:42;4.60;99.90
68354;DHT22;55274;43.060;25.618;2023-03-17T00:11:13;4.70;99.90
68354;DHT22;55274;43.060;25.618;2023-03-17T00:13:39;4.70;99.90
68354;DHT22;55274;43.060;25.618;2023-03-17T00:16:09;4.70;99.90
68354;DHT22;55274;43.060;25.618;2023-03-17T00:18:37;4.70;99.90
68354;DHT22;55274;43.060;25.618;2023-03-17T00:21:03;4.60;99.90
68354;DHT22;55274;43.060;25.618;2023-03-17T00:23:29;4.60;99.90
68354;DHT22;55274;43.060;25.618;2023-03-17T00:25:55;4.70;99.90
68354;DHT22;55274;43.060;25.618;2023-03-17T00:28:22;4.70;99.90
68354;DHT22;55274;43.060;25.618;2023-03-17T00:30:53;4.70;99.90
68354;DHT22;55274;43.060;25.618;2023-03-17T00:33:23;4.70;99.90
68354;DHT22;55274;43.060;25.618;2023-03-17T00:35:50;4.70;99.90
68354;DHT22;55274;43.060;25.618;2023-03-17T00:38:18;4.70;99.90
68354;DHT22;55274;43.060;25.618;2023-03-17T00:40:45;4.70;99.90
68354;DHT22;55274;43.060;25.618;2023-03-17T00:43:11;4.70;99.90
68354;DHT22;55274;43.060;25.618;2023-03-17T00:45:41;4.60;99.90
68354;DHT22;55274;43.060;25.618;2023-03-17T00:48:15;4.60;99.90
68354;DHT22;55274;43.060;25.618;2023-03-17T00:50:42;4.60;99.90
68354;DHT22;55274;43.060;25.618;2023-03-17T00:53:18;4.60;99.90
68354;DHT22;55274;43.060;25.618;2023-03-17T00:55:46;4.60;99.90
68354;DHT22;55274;43.060;25.618;2023-03-17T00:58:25;4.60;99.90
68354;DHT22;55274;43.060;25.618;2023-03-17T01:00:52;4.50;99.90
68354;DHT22;55274;43.060;25.618;2023-03-17T01:03:18;4.50;99.90
68354;DHT22;55274;43.060;25.618;2023-03-17T01:05:45;4.50;99.90
68354;DHT22;55274;43.060;25.618;2023-03-17T01:08:11;4.50;99.90
68354;DHT22;55274;43.060;25.618;2023-03-17T01:10:37;4.60;99.90
68354;DHT22;55274;43.060;25.618;2023-03-17T01:13:05;4.50;99.90
68354;DHT22;55274;43.060;25.618;2023-03-17T01:15:32;4.60;99.90
68354;DHT22;55274;43.060;25.618;2023-03-17T01:17:59;4.50;99.90
68354;DHT22;55274;43.060;25.618;2023-03-17T01:20:29;4.50;99.90
68354;DHT22;55274;43.060;25.618;2023-03-17T01:22:55;4.50;99.90
68354;DHT22;55274;43.060;25.618;2023-03-17T01:25:23;4.50;99.90
68354;DHT22;55274;43.060;25.618;2023-03-17T01:27:49;4.60;99.90
68354;DHT22;55274;43.060;25.618;2023-03-17T01:30:23;4.50;99.90
68354;DHT22;55274;43.060;25.618;2023-03-17T01:32:50;4.60;99.90
68354;DHT22;55274;43.060;25.618;2023-03-17T01:35:17;4.50;99.90
68354;DHT22;55274;43.060;25.618;2023-03-17T01:37:45;4.50;99.90
68354;DHT22;55274;43.060;25.618;2023-03-17T01:40:14;4.50;99.90
68354;DHT22;55274;43.060;25.618;2023-03-17T01:42:44;4.50;99.90
68354;DHT22;55274;43.060;25.618;2023-03-17T01:48:16;4.50;99.90
68354;DHT22;55274;43.060;25.618;2023-03-17T01:50:45;4.50;99.90
68354;DHT22;55274;43.060;25.618;2023-03-17T01:53:13;4.50;99.90
68354;DHT22;55274;43.060;25.618;2023-03-17T01:55:40;4.50;99.90
68354;DHT22;55274;43.060;25.618;2023-03-17T01:58:09;4.50;99.90
68354;DHT22;55274;43.060;25.618;2023-03-17T02:00:36;4.50;99.90
68354;DHT22;55274;43.060;25.618;2023-03-17T02:03:03;4.40;99.90
68354;DHT22;55274;43.060;25.618;2023-03-17T02:05:31;4.40;99.90
68354;DHT22;55274;43.060;25.618;2023-03-17T02:07:58;4.40;99.90
68354;DHT22;55274;43.060;25.618;2023-03-17T02:10:26;4.40;99.90
68354;DHT22;55274;43.060;25.618;2023-03-17T02:12:58;4.40;99.90
68354;DHT22;55274;43.060;25.618;2023-03-17T02:15:41;4.40;99.90
68354;DHT22;55274;43.060;25.618;2023-03-17T02:18:09;4.30;99.90
68354;DHT22;55274;43.060;25.618;2023-03-17T02:23:03;4.30;99.90
68354;DHT22;55274;43.060;25.618;2023-03-17T02:25:31;4.30;99.90
68354;DHT22;55274;43.060;25.618;2023-03-17T02:28:07;4.30;99.90
68354;DHT22;55274;43.060;25.618;2023-03-17T02:30:34;4.30;99.90
68354;DHT22;55274;43.060;25.618;2023-03-17T02:33:01;4.30;99.90
68354;DHT22;55274;43.060;25.618;2023-03-17T02:35:28;4.30;99.90
68354;DHT22;55274;43.060;25.618;2023-03-17T02:37:54;4.20;99.90
68354;DHT22;55274;43.060;25.618;2023-03-17T02:40:21;4.20;99.90
68354;DHT22;55274;43.060;25.618;2023-03-17T02:42:47;4.20;99.90
68354;DHT22;55274;43.060;25.618;2023-03-17T02:45:13;4.30;99.90
68354;DHT22;55274;43.060;25.618;2023-03-17T02:47:40;4.30;99.90
68354;DHT22;55274;43.060;25.618;2023-03-17T02:50:07;4.20;99.90
68354;DHT22;55274;43.060;25.618;2023-03-17T02:52:34;4.20;99.90
68354;DHT22;55274;43.060;25.618;2023-03-17T02:55:00;4.30;99.90
68354;DHT22;55274;43.060;25.618;2023-03-17T02:57:25;4.30;99.90
68354;DHT22;55274;43.060;25.618;2023-03-17T02:59:51;4.30;99.90
68354;DHT22;55274;43.060;25.618;2023-03-17T03:02:17;4.20;99.90
68354;DHT22;55274;43.060;25.618;2023-03-17T03:04:43;4.20;99.90
68354;DHT22;55274;43.060;25.618;2023-03-17T03:07:10;4.20;99.90
68354;DHT22;55274;43.060;25.618;2023-03-17T03:09:36;4.20;99.90
68354;DHT22;55274;43.060;25.618;2023-03-17T03:12:02;4.20;99.90
68354;DHT22;55274;43.060;25.618;2023-03-17T03:14:28;4.20;99.90
68354;DHT22;55274;43.060;25.618;2023-03-17T03:16:54;4.20;99.90
68354;DHT22;55274;43.060;25.618;2023-03-17T03:19:20;4.20;99.90
68354;DHT22;55274;43.060;25.618;2023-03-17T03:21:46;4.10;99.90
68354;DHT22;55274;43.060;25.618;2023-03-17T03:24:12;4.10;99.90
68354;DHT22;55274;43.060;25.618;2023-03-17T03:26:38;4.10;99.90
68354;DHT22;55274;43.060;25.618;2023-03-17T03:29:04;4.10;99.90
68354;DHT22;55274;43.060;25.618;2023-03-17T03:31:29;4.10;99.90
68354;DHT22;55274;43.060;25.618;2023-03-17T03:33:56;4.10;99.90
68354;DHT22;55274;43.060;25.618;2023-03-17T03:36:22;4.10;99.90
68354;DHT22;55274;43.060;25.618;2023-03-17T03:38:48;4.10;99.90
68354;DHT22;55274;43.060;25.618;2023-03-17T03:41:14;4.10;99.90
68354;DHT22;55274;43.060;25.618;2023-03-17T03:43:40;4.10;99.90
68354;DHT22;55274;43.060;25.618;2023-03-17T03:46:06;4.10;99.90
68354;DHT22;55274;43.060;25.618;2023-03-17T03:48:31;4.10;99.90
68354;DHT22;55274;43.060;25.618;2023-03-17T03:50:59;4.00;99.90
68354;DHT22;55274;43.060;25.618;2023-03-17T03:53:25;4.00;99.90
68354;DHT22;55274;43.060;25.618;2023-03-17T03:55:51;4.00;99.90
68354;DHT22;55274;43.060;25.618;2023-03-17T03:58:17;4.00;99.90
68354;DHT22;55274;43.060;25.618;2023-03-17T04:00:43;4.00;99.90
68354;DHT22;55274;43.060;25.618;2023-03-17T04:03:08;4.00;99.90
68354;DHT22;55274;43.060;25.618;2023-03-17T04:05:34;4.00;99.90
68354;DHT22;55274;43.060;25.618;2023-03-17T04:08:00;4.00;99.90
68354;DHT22;55274;43.060;25.618;2023-03-17T04:10:26;4.00;99.90
68354;DHT22;55274;43.060;25.618;2023-03-17T04:12:52;4.00;99.90
68354;DHT22;55274;43.060;25.618;2023-03-17T04:15:19;4.00;99.90
68354;DHT22;55274;43.060;25.618;2023-03-17T04:17:45;4.00;99.90
68354;DHT22;55274;43.060;25.618;2023-03-17T04:20:13;3.90;99.90
68354;DHT22;55274;43.060;25.618;2023-03-17T04:22:40;3.90;99.90
68354;DHT22;55274;43.060;25.618;2023-03-17T04:25:07;3.90;99.90
68354;DHT22;55274;43.060;25.618;2023-03-17T04:27:33;3.90;99.90
68354;DHT22;55274;43.060;25.618;2023-03-17T04:29:59;3.90;99.90
68354;DHT22;55274;43.060;25.618;2023-03-17T04:32:26;3.90;99.90
68354;DHT22;55274;43.060;25.618;2023-03-17T04:34:51;3.90;99.90
68354;DHT22;55274;43.060;25.618;2023-03-17T04:37:17;3.80;99.90
68354;DHT22;55274;43.060;25.618;2023-03-17T04:39:43;3.80;99.90
68354;DHT22;55274;43.060;25.618;2023-03-17T04:42:09;3.80;99.90
68354;DHT22;55274;43.060;25.618;2023-03-17T04:44:35;3.70;99.90
68354;DHT22;55274;43.060;25.618;2023-03-17T04:47:01;3.60;99.90
68354;DHT22;55274;43.060;25.618;2023-03-17T04:49:27;3.60;99.90
68354;DHT22;55274;43.060;25.618;2023-03-17T04:51:53;3.60;99.90
68354;DHT22;55274;43.060;25.618;2023-03-17T04:54:20;3.60;99.90
68354;DHT22;55274;43.060;25.618;2023-03-17T04:56:46;3.60;99.90
68354;DHT22;55274;43.060;25.618;2023-03-17T04:59:11;3.60;99.90
68354;DHT22;55274;43.060;25.618;2023-03-17T05:01:37;3.60;99.90
68354;DHT22;55274;43.060;25.618;2023-03-17T05:04:03;3.60;99.90
68354;DHT22;55274;43.060;25.618;2023-03-17T05:06:29;3.60;99.90
68354;DHT22;55274;43.060;25.618;2023-03-17T05:08:56;3.60;99.90
68354;DHT22;55274;43.060;25.618;2023-03-17T05:11:21;3.50;99.90
68354;DHT22;55274;43.060;25.618;2023-03-17T05:13:47;3.50;99.90
68354;DHT22;55274;43.060;25.618;2023-03-17T05:16:13;3.50;99.90
68354;DHT22;55274;43.060;25.618;2023-03-17T05:18:39;3.40;99.90
68354;DHT22;55274;43.060;25.618;2023-03-17T05:21:06;3.40;99.90
68354;DHT22;55274;43.060;25.618;2023-03-17T05:23:33;3.40;99.90
68354;DHT22;55274;43.060;25.618;2023-03-17T05:25:59;3.50;99.90
68354;DHT22;55274;43.060;25.618;2023-03-17T05:28:24;3.50;99.90
68354;DHT22;55274;43.060;25.618;2023-03-17T05:30:51;3.70;99.90
68354;DHT22;55274;43.060;25.618;2023-03-17T05:33:18;3.80;99.90
68354;DHT22;55274;43.060;25.618;2023-03-17T05:35:45;3.90;99.90
68354;DHT22;55274;43.060;25.618;2023-03-17T05:38:12;4.00;99.90
68354;DHT22;55274;43.060;25.618;2023-03-17T05:40:38;4.20;99.90
68354;DHT22;55274;43.060;25.618;2023-03-17T05:43:05;4.50;99.90
68354;DHT22;55274;43.060;25.618;2023-03-17T05:45:31;4.60;99.90
68354;DHT22;55274;43.060;25.618;2023-03-17T05:47:58;4.40;99.90
68354;DHT22;55274;43.060;25.618;2023-03-17T05:50:24;4.60;99.90
68354;DHT22;55274;43.060;25.618;2023-03-17T05:52:50;4.60;99.90
68354;DHT22;55274;43.060;25.618;2023-03-17T05:55:17;4.60;99.90
68354;DHT22;55274;43.060;25.618;2023-03-17T05:57:43;4.50;99.90
68354;DHT22;55274;43.060;25.618;2023-03-17T06:00:09;4.60;99.90
68354;DHT22;55274;43.060;25.618;2023-03-17T06:02:37;4.70;99.90
68354;DHT22;55274;43.060;25.618;2023-03-17T06:05:04;5.00;99.90
68354;DHT22;55274;43.060;25.618;2023-03-17T06:07:30;5.70;99.90
68354;DHT22;55274;43.060;25.618;2023-03-17T06:09:56;6.50;99.90
68354;DHT22;55274;43.060;25.618;2023-03-17T06:12:22;7.40;99.90
68354;DHT22;55274;43.060;25.618;2023-03-17T06:14:48;8.40;99.90
68354;DHT22;55274;43.060;25.618;2023-03-17T06:17:14;9.10;99.90
68354;DHT22;55274;43.060;25.618;2023-03-17T06:19:40;9.90;99.90
68354;DHT22;55274;43.060;25.618;2023-03-17T06:22:06;9.90;99.90
68354;DHT22;55274;43.060;25.618;2023-03-17T06:24:32;10.00;96.80
68354;DHT22;55274;43.060;25.618;2023-03-17T06:26:58;10.00;93.80
68354;DHT22;55274;43.060;25.618;2023-03-17T06:29:24;9.80;94.40
68354;DHT22;55274;43.060;25.618;2023-03-17T06:31:50;9.70;93.90
68354;DHT22;55274;43.060;25.618;2023-03-17T06:34:20;9.60;93.20
68354;DHT22;55274;43.060;25.618;2023-03-17T06:36:46;9.60;94.10
68354;DHT22;55274;43.060;25.618;2023-03-17T06:39:13;9.70;93.90
68354;DHT22;55274;43.060;25.618;2023-03-17T06:41:40;9.70;94.30
68354;DHT22;55274;43.060;25.618;2023-03-17T06:44:06;9.50;92.50
68354;DHT22;55274;43.060;25.618;2023-03-17T06:46:33;9.30;90.90
68354;DHT22;55274;43.060;25.618;2023-03-17T06:49:00;9.30;93.00
68354;DHT22;55274;43.060;25.618;2023-03-17T06:51:27;9.10;92.10
68354;DHT22;55274;43.060;25.618;2023-03-17T06:53:53;9.00;93.70
68354;DHT22;55274;43.060;25.618;2023-03-17T06:56:19;8.90;95.70
68354;DHT22;55274;43.060;25.618;2023-03-17T06:58:45;8.70;96.90
68354;DHT22;55274;43.060;25.618;2023-03-17T07:01:12;8.70;96.90
68354;DHT22;55274;43.060;25.618;2023-03-17T07:03:39;8.60;96.10
68354;DHT22;55274;43.060;25.618;2023-03-17T07:06:06;8.60;95.90
68354;DHT22;55274;43.060;25.618;2023-03-17T07:08:33;8.60;95.70
68354;DHT22;55274;43.060;25.618;2023-03-17T07:10:59;8.50;96.30
68354;DHT22;55274;43.060;25.618;2023-03-17T07:13:25;8.40;97.90
68354;DHT22;55274;43.060;25.618;2023-03-17T07:15:52;8.30;99.90
68354;DHT22;55274;43.060;25.618;2023-03-17T07:18:19;8.10;98.20
68354;DHT22;55274;43.060;25.618;2023-03-17T07:20:45;8.00;99.00
68354;DHT22;55274;43.060;25.618;2023-03-17T07:23:19;7.80;98.20
68354;DHT22;55274;43.060;25.618;2023-03-17T07:25:45;7.70;99.60
68354;DHT22;55274;43.060;25.618;2023-03-17T07:28:12;7.70;99.90
68354;DHT22;55274;43.060;25.618;2023-03-17T07:30:38;7.60;99.90
68354;DHT22;55274;43.060;25.618;2023-03-17T07:33:05;7.50;99.90
68354;DHT22;55274;43.060;25.618;2023-03-17T07:35:31;7.40;99.90
68354;DHT22;55274;43.060;25.618;2023-03-17T07:37:58;7.30;99.90
68354;DHT22;55274;43.060;25.618;2023-03-17T07:40:25;7.10;99.90
68354;DHT22;55274;43.060;25.618;2023-03-17T07:42:51;7.00;99.90
68354;DHT22;55274;43.060;25.618;2023-03-17T07:45:17;7.00;99.90
68354;DHT22;55274;43.060;25.618;2023-03-17T07:47:42;7.00;99.90
68354;DHT22;55274;43.060;25.618;2023-03-17T07:50:09;6.90;99.90
68354;DHT22;55274;43.060;25.618;2023-03-17T07:52:35;6.90;99.90
68354;DHT22;55274;43.060;25.618;2023-03-17T07:55:01;6.80;99.90
68354;DHT22;55274;43.060;25.618;2023-03-17T07:57:27;6.70;99.90
68354;DHT22;55274;43.060;25.618;2023-03-17T07:59:53;6.70;99.90
68354;DHT22;55274;43.060;25.618;2023-03-17T08:02:19;6.70;99.90
68354;DHT22;55274;43.060;25.618;2023-03-17T08:04:45;6.70;99.90
68354;DHT22;55274;43.060;25.618;2023-03-17T08:07:11;6.70;99.90
68354;DHT22;55274;43.060;25.618;2023-03-17T08:09:38;6.70;99.90
68354;DHT22;55274;43.060;25.618;2023-03-17T08:12:04;6.70;99.90
68354;DHT22;55274;43.060;25.618;2023-03-17T08:14:30;6.70;99.90
68354;DHT22;55274;43.060;25.618;2023-03-17T08:16:56;6.70;99.90
68354;DHT22;55274;43.060;25.618;2023-03-17T08:19:22;6.60;99.90
68354;DHT22;55274;43.060;25.618;2023-03-17T08:21:49;6.60;99.90
68354;DHT22;55274;43.060;25.618;2023-03-17T08:24:15;6.70;99.90
68354;DHT22;55274;43.060;25.618;2023-03-17T08:26:40;6.70;99.90
68354;DHT22;55274;43.060;25.618;2023-03-17T08:29:07;6.70;99.90
68354;DHT22;55274;43.060;25.618;2023-03-17T08:31:32;6.60;99.90
68354;DHT22;55274;43.060;25.618;2023-03-17T08:33:58;6.50;99.90
68354;DHT22;55274;43.060;25.618;2023-03-17T08:36:24;6.50;99.90
68354;DHT22;55274;43.060;25.618;2023-03-17T08:38:51;6.50;99.90
68354;DHT22;55274;43.060;25.618;2023-03-17T08:41:19;6.60;99.90
68354;DHT22;55274;43.060;25.618;2023-03-17T08:43:46;6.60;99.90
68354;DHT22;55274;43.060;25.618;2023-03-17T08:46:19;6.80;99.90
68354;DHT22;55274;43.060;25.618;2023-03-17T08:48:46;6.90;99.90
68354;DHT22;55274;43.060;25.618;2023-03-17T08:51:13;7.10;99.90
68354;DHT22;55274;43.060;25.618;2023-03-17T08:53:39;7.30;99.90
68354;DHT22;55274;43.060;25.618;2023-03-17T08:56:06;7.40;99.90
68354;DHT22;55274;43.060;25.618;2023-03-17T08:58:34;7.40;99.90
68354;DHT22;55274;43.060;25.618;2023-03-17T09:01:01;7.50;99.90
68354;DHT22;55274;43.060;25.618;2023-03-17T09:03:28;7.40;99.90
68354;DHT22;55274;43.060;25.618;2023-03-17T09:05:54;7.50;99.90
68354;DHT22;55274;43.060;25.618;2023-03-17T09:08:20;7.50;99.90
68354;DHT22;55274;43.060;25.618;2023-03-17T09:10:47;7.40;99.90
68354;DHT22;55274;43.060;25.618;2023-03-17T09:13:13;7.50;99.90
68354;DHT22;55274;43.060;25.618;2023-03-17T09:15:39;7.50;99.90
68354;DHT22;55274;43.060;25.618;2023-03-17T09:18:06;7.50;99.90
68354;DHT22;55274;43.060;25.618;2023-03-17T09:20:32;7.50;99.90
68354;DHT22;55274;43.060;25.618;2023-03-17T09:22:58;7.70;99.90
68354;DHT22;55274;43.060;25.618;2023-03-17T09:25:24;7.70;99.90
68354;DHT22;55274;43.060;25.618;2023-03-17T09:27:50;7.80;99.90
68354;DHT22;55274;43.060;25.618;2023-03-17T09:30:16;7.90;99.90
68354;DHT22;55274;43.060;25.618;2023-03-17T09:32:43;7.80;99.90
68354;DHT22;55274;43.060;25.618;2023-03-17T09:35:10;7.90;99.90
68354;DHT22;55274;43.060;25.618;2023-03-17T09:37:36;7.90;99.90
68354;DHT22;55274;43.060;25.618;2023-03-17T09:40:03;8.00;99.90
68354;DHT22;55274;43.060;25.618;2023-03-17T09:45:32;8.10;99.90
68354;DHT22;55274;43.060;25.618;2023-03-17T09:51:10;8.50;99.90
68354;DHT22;55274;43.060;25.618;2023-03-17T09:54:31;8.70;99.90
68354;DHT22;55274;43.060;25.618;2023-03-17T09:56:31;8.90;99.90
68354;DHT22;55274;43.060;25.618;2023-03-17T09:59:28;9.20;97.90
68354;DHT22;55274;43.060;25.618;2023-03-17T10:01:44;9.30;97.80
68354;DHT22;55274;43.060;25.618;2023-03-17T10:04:10;9.60;95.50
68354;DHT22;55274;43.060;25.618;2023-03-17T10:06:42;9.80;94.10
68354;DHT22;55274;43.060;25.618;2023-03-17T10:12:12;10.10;91.80
68354;DHT22;55274;43.060;25.618;2023-03-17T10:14:48;10.10;88.30
68354;DHT22;55274;43.060;25.618;2023-03-17T10:17:21;10.10;89.20
68354;DHT22;55274;43.060;25.618;2023-03-17T10:20:04;10.30;89.40
68354;DHT22;55274;43.060;25.618;2023-03-17T10:22:53;10.50;85.00
68354;DHT22;55274;43.060;25.618;2023-03-17T10:25:27;10.50;86.40
68354;DHT22;55274;43.060;25.618;2023-03-17T10:27:57;10.50;86.20
68354;DHT22;55274;43.060;25.618;2023-03-17T10:30:25;10.70;85.60
68354;DHT22;55274;43.060;25.618;2023-03-17T10:32:53;10.90;84.00
68354;DHT22;55274;43.060;25.618;2023-03-17T10:35:22;11.00;82.40
68354;DHT22;55274;43.060;25.618;2023-03-17T10:37:48;11.20;84.80
68354;DHT22;55274;43.060;25.618;2023-03-17T10:40:26;11.40;80.30
68354;DHT22;55274;43.060;25.618;2023-03-17T10:43:04;11.40;81.10
68354;DHT22;55274;43.060;25.618;2023-03-17T10:45:35;11.50;81.20
68354;DHT22;55274;43.060;25.618;2023-03-17T10:48:07;11.40;78.40
68354;DHT22;55274;43.060;25.618;2023-03-17T10:50:38;11.30;79.00
68354;DHT22;55274;43.060;25.618;2023-03-17T10:53:20;11.20;76.70
68354;DHT22;55274;43.060;25.618;2023-03-17T10:56:38;11.20;77.20
68354;DHT22;55274;43.060;25.618;2023-03-17T10:58:43;11.00;79.20
68354;DHT22;55274;43.060;25.618;2023-03-17T11:01:29;10.80;78.60
68354;DHT22;55274;43.060;25.618;2023-03-17T11:03:58;10.60;80.70
68354;DHT22;55274;43.060;25.618;2023-03-17T11:06:33;10.50;79.00
68354;DHT22;55274;43.060;25.618;2023-03-17T11:09:09;10.30;79.00
68354;DHT22;55274;43.060;25.618;2023-03-17T11:11:43;9.90;80.00
68354;DHT22;55274;43.060;25.618;2023-03-17T11:14:13;9.80;79.00
68354;DHT22;55274;43.060;25.618;2023-03-17T11:17:12;9.80;80.30
68354;DHT22;55274;43.060;25.618;2023-03-17T11:19:52;9.70;79.00
68354;DHT22;55274;43.060;25.618;2023-03-17T11:27:35;9.60;82.80
68354;DHT22;55274;43.060;25.618;2023-03-17T11:30:36;9.50;84.50
68354;DHT22;55274;43.060;25.618;2023-03-17T11:36:06;9.30;83.80
68354;DHT22;55274;43.060;25.618;2023-03-17T11:38:42;9.20;84.10
68354;DHT22;55274;43.060;25.618;2023-03-17T11:46:28;9.10;84.30
68354;DHT22;55274;43.060;25.618;2023-03-17T11:51:47;9.00;87.50
68354;DHT22;55274;43.060;25.618;2023-03-17T11:54:20;8.90;87.80
68354;DHT22;55274;43.060;25.618;2023-03-17T11:57:00;8.90;89.00
68354;DHT22;55274;43.060;25.618;2023-03-17T11:59:48;8.90;88.80
68354;DHT22;55274;43.060;25.618;2023-03-17T12:04:59;8.70;89.40
68354;DHT22;55274;43.060;25.618;2023-03-17T12:10:53;8.70;90.70
68354;DHT22;55274;43.060;25.618;2023-03-17T12:13:04;8.60;91.30
68354;DHT22;55274;43.060;25.618;2023-03-17T12:15:43;8.50;91.80
68354;DHT22;55274;43.060;25.618;2023-03-17T12:20:50;8.50;93.20
68354;DHT22;55274;43.060;25.618;2023-03-17T12:29:03;8.40;93.30
68354;DHT22;55274;43.060;25.618;2023-03-17T12:31:33;8.30;93.30
68354;DHT22;55274;43.060;25.618;2023-03-17T12:34:24;8.30;93.60
68354;DHT22;55274;43.060;25.618;2023-03-17T12:36:53;8.30;92.70
68354;DHT22;55274;43.060;25.618;2023-03-17T12:39:28;8.20;92.70
68354;DHT22;55274;43.060;25.618;2023-03-17T12:53:23;7.90;94.30
68354;DHT22;55274;43.060;25.618;2023-03-17T12:55:52;7.90;94.50
68354;DHT22;55274;43.060;25.618;2023-03-17T13:03:26;7.80;94.80
68354;DHT22;55274;43.060;25.618;2023-03-17T13:06:05;7.80;95.70
68354;DHT22;55274;43.060;25.618;2023-03-17T13:08:39;7.80;95.90
68354;DHT22;55274;43.060;25.618;2023-03-17T13:14:14;7.90;96.10
68354;DHT22;55274;43.060;25.618;2023-03-17T13:16:41;7.80;94.60
68354;DHT22;55274;43.060;25.618;2023-03-17T13:19:20;7.90;95.10
68354;DHT22;55274;43.060;25.618;2023-03-17T13:21:57;7.80;94.70
68354;DHT22;55274;43.060;25.618;2023-03-17T13:33:00;7.80;94.30
68354;DHT22;55274;43.060;25.618;2023-03-17T13:41:14;7.80;95.10
68354;DHT22;55274;43.060;25.618;2023-03-17T13:46:44;7.70;95.10
68354;DHT22;55274;43.060;25.618;2023-03-17T13:51:52;7.70;95.50
68354;DHT22;55274;43.060;25.618;2023-03-17T13:54:31;7.60;95.40
68354;DHT22;55274;43.060;25.618;2023-03-17T13:57:27;7.60;94.70
68354;DHT22;55274;43.060;25.618;2023-03-17T14:02:24;7.60;95.40
68354;DHT22;55274;43.060;25.618;2023-03-17T14:04:58;7.60;95.00
68354;DHT22;55274;43.060;25.618;2023-03-17T14:07:52;7.60;95.70
68354;DHT22;55274;43.060;25.618;2023-03-17T14:10:22;7.50;95.70
68354;DHT22;55274;43.060;25.618;2023-03-17T14:15:33;7.50;96.10
68354;DHT22;55274;43.060;25.618;2023-03-17T14:18:30;7.50;96.10
68354;DHT22;55274;43.060;25.618;2023-03-17T14:20:59;7.50;96.90
68354;DHT22;55274;43.060;25.618;2023-03-17T14:23:25;7.50;96.80
68354;DHT22;55274;43.060;25.618;2023-03-17T14:25:56;7.50;97.00
68354;DHT22;55274;43.060;25.618;2023-03-17T14:28:26;7.50;96.10
68354;DHT22;55274;43.060;25.618;2023-03-17T14:31:02;7.40;96.40
68354;DHT22;55274;43.060;25.618;2023-03-17T14:33:40;7.40;96.30
68354;DHT22;55274;43.060;25.618;2023-03-17T14:36:11;7.40;95.90
68354;DHT22;55274;43.060;25.618;2023-03-17T14:38:38;7.40;96.60
68354;DHT22;55274;43.060;25.618;2023-03-17T14:43:38;7.40;97.10
68354;DHT22;55274;43.060;25.618;2023-03-17T14:46:20;7.30;97.40
68354;DHT22;55274;43.060;25.618;2023-03-17T14:48:48;7.30;97.70
68354;DHT22;55274;43.060;25.618;2023-03-17T14:53:42;7.30;98.20
68354;DHT22;55274;43.060;25.618;2023-03-17T14:56:11;7.30;97.50
68354;DHT22;55274;43.060;25.618;2023-03-17T14:58:42;7.30;98.20
68354;DHT22;55274;43.060;25.618;2023-03-17T15:01:19;7.30;98.60
68354;DHT22;55274;43.060;25.618;2023-03-17T15:04:08;7.20;97.80
68354;DHT22;55274;43.060;25.618;2023-03-17T15:06:35;7.20;97.70
68354;DHT22;55274;43.060;25.618;2023-03-17T15:11:44;7.20;98.50
68354;DHT22;55274;43.060;25.618;2023-03-17T15:14:27;7.10;98.40
68354;DHT22;55274;43.060;25.618;2023-03-17T15:16:54;7.10;98.70
68354;DHT22;55274;43.060;25.618;2023-03-17T15:19:43;7.10;99.20
68354;DHT22;55274;43.060;25.618;2023-03-17T15:27:37;7.00;98.70
68354;DHT22;55274;43.060;25.618;2023-03-17T15:30:03;7.00;99.50
68354;DHT22;55274;43.060;25.618;2023-03-17T15:32:29;6.90;99.90
68354;DHT22;55274;43.060;25.618;2023-03-17T15:34:55;6.90;99.90
68354;DHT22;55274;43.060;25.618;2023-03-17T15:37:24;6.90;99.90
68354;DHT22;55274;43.060;25.618;2023-03-17T15:39:51;6.80;99.90
68354;DHT22;55274;43.060;25.618;2023-03-17T15:42:19;6.80;99.90
68354;DHT22;55274;43.060;25.618;2023-03-17T15:44:45;6.80;99.90
68354;DHT22;55274;43.060;25.618;2023-03-17T15:47:15;6.80;99.90
68354;DHT22;55274;43.060;25.618;2023-03-17T15:49:43;6.90;99.90
68354;DHT22;55274;43.060;25.618;2023-03-17T15:52:21;6.80;99.90
68354;DHT22;55274;43.060;25.618;2023-03-17T15:54:56;6.80;99.90
68354;DHT22;55274;43.060;25.618;2023-03-17T15:57:22;6.80;99.90
68354;DHT22;55274;43.060;25.618;2023-03-17T15:59:49;6.70;99.90
68354;DHT22;55274;43.060;25.618;2023-03-17T16:04:48;6.70;99.90
68354;DHT22;55274;43.060;25.618;2023-03-17T16:07:14;6.70;99.90
68354;DHT22;55274;43.060;25.618;2023-03-17T16:09:39;6.60;99.90
68354;DHT22;55274;43.060;25.618;2023-03-17T16:12:09;6.70;99.90
68354;DHT22;55274;43.060;25.618;2023-03-17T16:14:35;6.60;99.90
68354;DHT22;55274;43.060;25.618;2023-03-17T16:17:01;6.50;99.90
68354;DHT22;55274;43.060;25.618;2023-03-17T16:19:27;6.50;99.90
68354;DHT22;55274;43.060;25.618;2023-03-17T16:21:54;6.40;99.90
68354;DHT22;55274;43.060;25.618;2023-03-17T16:24:24;6.40;99.90
68354;DHT22;55274;43.060;25.618;2023-03-17T16:26:51;6.40;99.90
68354;DHT22;55274;43.060;25.618;2023-03-17T16:29:19;6.40;99.90
68354;DHT22;55274;43.060;25.618;2023-03-17T16:31:49;6.40;99.90
68354;DHT22;55274;43.060;25.618;2023-03-17T16:34:20;6.40;99.90
68354;DHT22;55274;43.060;25.618;2023-03-17T16:36:46;6.40;99.90
68354;DHT22;55274;43.060;25.618;2023-03-17T16:39:17;6.30;99.90
68354;DHT22;55274;43.060;25.618;2023-03-17T16:41:47;6.30;99.90
68354;DHT22;55274;43.060;25.618;2023-03-17T16:44:18;6.30;99.90
68354;DHT22;55274;43.060;25.618;2023-03-17T16:46:44;6.30;99.90
68354;DHT22;55274;43.060;25.618;2023-03-17T16:49:13;6.30;99.90
68354;DHT22;55274;43.060;25.618;2023-03-17T16:51:41;6.30;99.90
68354;DHT22;55274;43.060;25.618;2023-03-17T16:54:08;6.30;99.90
68354;DHT22;55274;43.060;25.618;2023-03-17T16:56:35;6.30;99.90
68354;DHT22;55274;43.060;25.618;2023-03-17T16:59:02;6.30;99.90
68354;DHT22;55274;43.060;25.618;2023-03-17T17:01:28;6.30;99.90
68354;DHT22;55274;43.060;25.618;2023-03-17T17:03:55;6.30;99.90
68354;DHT22;55274;43.060;25.618;2023-03-17T17:06:22;6.30;99.90
68354;DHT22;55274;43.060;25.618;2023-03-17T17:08:49;6.30;99.90
68354;DHT22;55274;43.060;25.618;2023-03-17T17:11:16;6.20;99.90
68354;DHT22;55274;43.060;25.618;2023-03-17T17:13:44;6.20;99.90
68354;DHT22;55274;43.060;25.618;2023-03-17T17:16:27;6.20;99.90
68354;DHT22;55274;43.060;25.618;2023-03-17T17:18:53;6.10;99.90
68354;DHT22;55274;43.060;25.618;2023-03-17T17:21:19;6.00;99.90
68354;DHT22;55274;43.060;25.618;2023-03-17T17:23:45;6.00;99.90
68354;DHT22;55274;43.060;25.618;2023-03-17T17:26:11;5.90;99.90